Time;durP1;ratioP1;P1;durP2;ratioP2;P2;SDS_P1;SDS_P2;PMS_P1;PMS_P2;Temp;Humidity;BMP_temperature;BMP_pressure;BME280_temperature;BME280_humidity;BME280_pressure;Samples;Min_cycle;Max_cycle;Signal;HPM_P1;HPM_P2
2023/03/12 00:00:38;;;;;;;1.50;1.10;;;14.80;51.90;;;;;;6255121;23;20020;-71
2023/03/12 00:03:04;;;;;;;2.03;1.50;;;14.80;51.90;;;;;;6254679;23;20015;-71
2023/03/12 00:05:29;;;;;;;1.60;1.40;;;14.80;52.00;;;;;;6255101;23;20366;-71
2023/03/12 00:07:58;;;;;;;2.28;1.30;;;14.80;51.90;;;;;;6254990;23;19996;-71
2023/03/12 00:10:24;;;;;;;3.50;1.30;;;14.80;51.90;;;;;;6245094;23;20027;-71
2023/03/12 00:12:50;;;;;;;2.33;1.33;;;14.80;51.80;;;;;;6254897;23;20045;-71
2023/03/12 00:15:16;;;;;;;2.35;1.33;;;14.80;51.90;;;;;;6254910;23;20066;-71
2023/03/12 00:17:42;;;;;;;1.85;1.60;;;14.80;51.80;;;;;;6244940;23;20083;-71
2023/03/12 00:20:09;;;;;;;1.50;1.23;;;14.70;51.80;;;;;;6245057;23;20430;-71
2023/03/12 00:22:35;;;;;;;1.73;1.35;;;14.70;51.70;;;;;;6254892;23;20343;-71
2023/03/12 00:25:01;;;;;;;1.35;1.15;;;14.70;51.70;;;;;;6254888;23;19993;-71
2023/03/12 00:27:27;;;;;;;1.45;1.15;;;14.70;51.70;;;;;;6254845;23;20066;-71
2023/03/12 00:29:52;;;;;;;2.05;1.30;;;14.70;51.40;;;;;;6254849;23;20428;-71
2023/03/12 00:32:19;;;;;;;1.40;1.30;;;14.70;51.70;;;;;;6254820;23;19992;-71
2023/03/12 00:34:53;;;;;;;1.55;1.30;;;14.70;51.70;;;;;;6245030;23;20000;-71
2023/03/12 00:37:20;;;;;;;2.70;1.27;;;14.70;51.70;;;;;;6244951;23;20086;-71
2023/03/12 00:39:46;;;;;;;2.05;1.27;;;14.70;51.70;;;;;;6246009;23;20069;-71
2023/03/12 00:42:12;;;;;;;2.05;1.25;;;14.70;51.70;;;;;;6246525;23;20062;-71
2023/03/12 00:44:38;;;;;;;2.45;1.40;;;14.70;51.70;;;;;;6246947;23;19996;-71
2023/03/12 00:47:04;;;;;;;2.38;1.50;;;14.70;51.60;;;;;;6246529;23;20000;-71
2023/03/12 00:49:29;;;;;;;3.10;1.15;;;14.70;51.60;;;;;;6246858;23;19999;-71
2023/03/12 00:51:55;;;;;;;4.25;1.60;;;14.70;51.60;;;;;;6256798;23;20600;-77
2023/03/12 00:54:21;;;;;;;2.28;1.38;;;14.60;51.60;;;;;;6256689;23;20004;-77
2023/03/12 00:56:47;;;;;;;1.77;1.30;;;14.60;51.60;;;;;;6256697;23;20082;-77
2023/03/12 00:59:14;;;;;;;1.83;1.42;;;14.60;51.60;;;;;;6256616;23;19996;-77
2023/03/12 01:01:41;;;;;;;1.50;1.20;;;14.60;51.60;;;;;;6246769;23;20071;-77
2023/03/12 01:04:07;;;;;;;2.25;1.50;;;14.60;51.60;;;;;;6246424;23;20008;-77
2023/03/12 01:06:33;;;;;;;2.10;1.27;;;14.60;52.30;;;;;;6256619;23;20022;-77
2023/03/12 01:09:04;;;;;;;1.65;1.20;;;14.60;51.50;;;;;;6256664;23;20003;-71
2023/03/12 01:11:31;;;;;;;1.92;1.38;;;14.60;51.60;;;;;;6256713;23;20031;-71
2023/03/12 01:13:58;;;;;;;1.75;1.55;;;14.60;51.60;;;;;;6219579;23;19996;-71
2023/03/12 01:16:27;;;;;;;2.33;1.35;;;14.60;51.60;;;;;;6256420;23;19996;-71
2023/03/12 01:18:53;;;;;;;1.95;1.30;;;14.60;51.70;;;;;;6256844;23;20000;-71
2023/03/12 01:21:19;;;;;;;1.58;1.38;;;14.60;51.70;;;;;;6256427;23;19996;-71
2023/03/12 01:23:44;;;;;;;1.88;1.20;;;14.60;51.60;;;;;;6256421;23;20485;-71
2023/03/12 01:26:10;;;;;;;2.30;1.10;;;14.60;51.60;;;;;;6229670;23;19996;-71
2023/03/12 01:28:35;;;;;;;1.45;1.10;;;14.60;51.70;;;;;;6229752;23;19996;-71
2023/03/12 01:31:13;;;;;;;2.15;1.40;;;14.60;51.70;;;;;;6256507;23;20000;-71
2023/03/12 01:33:39;;;;;;;1.63;1.17;;;14.50;51.70;;;;;;6256400;23;19992;-71
2023/03/12 01:36:14;;;;;;;1.70;1.20;;;14.60;51.80;;;;;;6256243;23;20001;-71
2023/03/12 01:38:39;;;;;;;1.63;1.00;;;14.50;51.60;;;;;;6256281;23;20004;-71
2023/03/12 01:41:05;;;;;;;2.45;1.30;;;14.60;51.80;;;;;;6256274;23;20000;-71
2023/03/12 01:43:36;;;;;;;3.17;1.33;;;14.60;51.70;;;;;;6256121;23;20319;-71
2023/03/12 01:46:09;;;;;;;2.05;1.40;;;14.50;51.70;;;;;;6256370;23;19997;-77
2023/03/12 01:48:52;;;;;;;2.20;1.30;;;14.50;51.70;;;;;;6256314;23;19996;-78
2023/03/12 01:51:19;;;;;;;1.85;1.30;;;14.50;51.70;;;;;;6256124;23;20487;-77
2023/03/12 01:53:48;;;;;;;1.50;1.17;;;14.50;51.70;;;;;;6256248;23;20074;-77
2023/03/12 01:56:16;;;;;;;1.95;1.30;;;14.50;51.70;;;;;;6245671;23;19996;-77
2023/03/12 01:58:45;;;;;;;3.08;1.33;;;14.50;51.70;;;;;;6256113;23;20190;-77
2023/03/12 02:01:13;;;;;;;2.50;1.30;;;14.50;51.80;;;;;;6256264;23;20077;-78
2023/03/12 02:03:39;;;;;;;2.70;1.20;;;14.50;51.70;;;;;;6255782;23;20015;-77
2023/03/12 02:06:11;;;;;;;4.10;1.45;;;14.50;51.80;;;;;;6256074;23;20424;-72
2023/03/12 02:08:40;;;;;;;1.42;1.20;;;14.50;51.70;;;;;;6256047;23;20075;-71
2023/03/12 02:11:06;;;;;;;1.70;1.27;;;14.50;51.70;;;;;;6256017;23;20027;-71
2023/03/12 02:13:32;;;;;;;2.03;1.50;;;14.50;51.80;;;;;;6255912;23;20335;-71
2023/03/12 02:15:58;;;;;;;1.48;1.30;;;14.50;51.60;;;;;;6256013;23;19992;-71
2023/03/12 02:18:24;;;;;;;1.45;1.02;;;14.40;51.50;;;;;;6255804;23;20011;-71
2023/03/12 02:21:08;;;;;;;1.80;1.30;;;14.40;51.60;;;;;;6255903;23;19996;-71
2023/03/12 02:23:42;;;;;;;1.98;1.40;;;14.40;51.70;;;;;;6256010;23;19996;-77
2023/03/12 02:26:09;;;;;;;2.42;1.17;;;14.40;51.50;;;;;;6255968;23;19992;-78
2023/03/12 02:28:41;;;;;;;3.13;1.30;;;14.40;51.60;;;;;;6255829;23;19993;-77
2023/03/12 02:31:07;;;;;;;2.05;1.35;;;14.40;51.70;;;;;;6246106;23;20000;-78
2023/03/12 02:33:33;;;;;;;1.48;1.10;;;14.40;51.70;;;;;;6255852;23;20050;-78
2023/03/12 02:35:59;;;;;;;2.30;1.38;;;14.40;51.70;;;;;;6255801;23;20000;-77
2023/03/12 02:38:49;;;;;;;1.88;1.60;;;14.40;51.70;;;;;;6255615;23;20004;-78
2023/03/12 02:41:37;;;;;;;1.20;1.10;;;14.40;51.60;;;;;;6228493;23;19996;-78
2023/03/12 02:44:13;;;;;;;2.40;1.40;;;14.40;51.50;;;;;;6255870;23;19992;-77
2023/03/12 02:46:45;;;;;;;1.85;1.38;;;14.40;51.60;;;;;;6255820;23;20323;-77
2023/03/12 02:49:12;;;;;;;1.20;0.98;;;14.30;51.60;;;;;;6255837;23;20043;-78
2023/03/12 02:51:39;;;;;;;2.05;1.25;;;14.30;51.70;;;;;;6255785;23;20343;-77
2023/03/12 02:54:06;;;;;;;1.95;1.40;;;14.30;51.50;;;;;;6255669;23;20023;-77
2023/03/12 02:56:32;;;;;;;1.52;1.30;;;14.30;51.60;;;;;;6255642;23;20008;-77
2023/03/12 02:58:58;;;;;;;1.58;1.25;;;14.30;51.60;;;;;;6255621;23;20565;-71
2023/03/12 03:01:24;;;;;;;1.65;1.23;;;14.30;60.20;;;;;;6255185;23;20000;-78
2023/03/12 03:03:50;;;;;;;1.40;1.17;;;14.30;51.60;;;;;;6255331;23;20011;-78
2023/03/12 03:06:16;;;;;;;2.03;1.48;;;14.30;51.50;;;;;;6245702;23;20004;-77
2023/03/12 03:08:41;;;;;;;3.47;1.13;;;14.30;51.60;;;;;;6255472;23;20004;-78
2023/03/12 03:11:07;;;;;;;0.98;0.85;;;14.30;51.60;;;;;;6255465;23;20381;-78
2023/03/12 03:13:33;;;;;;;2.75;1.20;;;14.30;51.60;;;;;;6255491;23;20003;-77
2023/03/12 03:16:00;;;;;;;2.42;1.40;;;14.30;51.60;;;;;;6245592;23;20004;-78
2023/03/12 03:18:27;;;;;;;1.73;1.10;;;14.20;51.70;;;;;;6255349;23;20012;-71
2023/03/12 03:21:01;;;;;;;1.65;1.23;;;14.20;51.60;;;;;;6255371;23;19992;-71
2023/03/12 03:23:28;;;;;;;1.50;1.33;;;14.30;51.60;;;;;;6255390;23;20000;-71
2023/03/12 03:25:55;;;;;;;2.03;1.30;;;14.20;51.60;;;;;;6245393;23;20327;-71
2023/03/12 03:28:23;;;;;;;1.92;1.10;;;14.20;51.60;;;;;;6255304;23;19996;-71
2023/03/12 03:30:56;;;;;;;2.50;1.20;;;14.20;51.70;;;;;;6255323;23;20039;-72
2023/03/12 03:33:23;;;;;;;1.85;1.17;;;14.30;51.80;;;;;;6255272;23;20000;-72
2023/03/12 03:35:48;;;;;;;1.77;1.30;;;14.20;51.70;;;;;;6255224;23;19996;-78
2023/03/12 03:38:15;;;;;;;2.50;1.17;;;14.30;51.80;;;;;;6255191;23;20457;-71
2023/03/12 03:40:40;;;;;;;1.45;1.17;;;14.30;51.80;;;;;;6255299;23;20071;-71
2023/03/12 03:43:06;;;;;;;1.20;1.10;;;14.20;51.70;;;;;;6255106;23;20028;-71
2023/03/12 03:45:31;;;;;;;2.42;1.00;;;14.20;51.80;;;;;;6255271;23;20004;-72
2023/03/12 03:47:57;;;;;;;1.77;1.10;;;14.20;51.80;;;;;;6255162;23;20008;-72
2023/03/12 03:50:23;;;;;;;2.13;1.20;;;14.20;51.70;;;;;;6255220;23;20073;-71
2023/03/12 03:52:48;;;;;;;2.30;1.13;;;14.20;51.70;;;;;;6244906;23;20000;-71
2023/03/12 03:55:14;;;;;;;2.40;1.35;;;14.20;51.70;;;;;;6255191;23;20000;-78
2023/03/12 03:57:40;;;;;;;2.17;1.20;;;14.20;51.80;;;;;;6255047;23;20008;-78
2023/03/12 04:00:08;;;;;;;1.55;1.02;;;14.20;51.60;;;;;;6255046;23;20067;-78
2023/03/12 04:02:34;;;;;;;1.50;1.08;;;14.20;51.70;;;;;;6254783;23;20038;-77
2023/03/12 04:05:01;;;;;;;1.42;1.17;;;14.20;51.70;;;;;;6255092;23;20493;-78
2023/03/12 04:07:27;;;;;;;2.63;1.50;;;14.20;51.60;;;;;;6254958;23;20031;-78
2023/03/12 04:09:53;;;;;;;3.38;1.58;;;14.10;51.70;;;;;;6254981;23;20050;-78
2023/03/12 04:12:19;;;;;;;2.22;1.33;;;14.10;51.60;;;;;;6255244;23;20000;-77
2023/03/12 04:14:45;;;;;;;2.80;1.20;;;14.10;51.80;;;;;;6220206;23;20443;-71
2023/03/12 04:17:10;;;;;;;1.80;1.13;;;14.10;51.70;;;;;;6256968;23;20008;-71
2023/03/12 04:19:36;;;;;;;3.33;1.48;;;14.10;51.60;;;;;;6257077;23;20000;-71
2023/03/12 04:22:02;;;;;;;2.70;1.52;;;14.10;51.60;;;;;;6257032;23;20039;-71
2023/03/12 04:24:27;;;;;;;2.40;1.40;;;14.10;51.70;;;;;;6257080;23;19993;-71
2023/03/12 04:26:53;;;;;;;2.83;1.10;;;14.10;51.60;;;;;;6257004;23;19996;-71
2023/03/12 04:29:19;;;;;;;3.13;1.55;;;14.10;51.80;;;;;;6256910;23;20001;-71
2023/03/12 04:31:44;;;;;;;1.17;1.05;;;14.00;51.60;;;;;;6256930;23;19992;-78
2023/03/12 04:34:11;;;;;;;4.15;1.30;;;14.10;51.60;;;;;;6256974;23;20322;-71
2023/03/12 04:36:37;;;;;;;2.35;1.20;;;14.00;51.70;;;;;;6256977;23;20026;-71
2023/03/12 04:39:06;;;;;;;3.63;1.20;;;14.00;51.60;;;;;;6256848;23;19997;-72
2023/03/12 04:41:35;;;;;;;2.03;1.10;;;14.00;51.70;;;;;;6256892;23;20004;-71
2023/03/12 04:44:01;;;;;;;2.80;1.25;;;14.00;52.30;;;;;;6256936;23;20000;-71
2023/03/12 04:46:27;;;;;;;3.50;1.33;;;14.00;51.60;;;;;;6246926;23;20335;-72
2023/03/12 04:48:53;;;;;;;2.88;1.55;;;14.00;51.70;;;;;;6256872;23;20047;-71
2023/03/12 04:51:19;;;;;;;2.75;1.30;;;14.00;51.70;;;;;;6256858;23;20323;-77
2023/03/12 04:53:44;;;;;;;1.77;1.40;;;14.00;51.70;;;;;;6256752;23;19992;-77
2023/03/12 04:56:10;;;;;;;1.65;1.00;;;14.00;51.80;;;;;;6256702;23;20365;-78
2023/03/12 04:58:36;;;;;;;2.65;1.38;;;14.00;51.90;;;;;;6256637;23;20012;-77
2023/03/12 05:01:02;;;;;;;3.40;1.45;;;14.00;51.80;;;;;;6246826;23;20024;-77
2023/03/12 05:03:27;;;;;;;2.30;1.55;;;14.00;51.60;;;;;;6246252;23;20008;-77
2023/03/12 05:05:53;;;;;;;2.42;1.40;;;13.90;51.70;;;;;;6256688;23;20497;-77
2023/03/12 05:08:19;;;;;;;1.27;0.90;;;13.90;51.80;;;;;;6256620;23;20000;-77
2023/03/12 05:10:44;;;;;;;2.70;1.45;;;13.90;51.90;;;;;;6256679;23;20004;-77
2023/03/12 05:13:18;;;;;;;3.50;1.20;;;13.90;51.70;;;;;;6256491;23;19996;-78
2023/03/12 05:15:47;;;;;;;3.85;1.38;;;13.90;51.80;;;;;;6256589;23;20066;-78
2023/03/12 05:18:13;;;;;;;2.25;1.67;;;13.90;51.90;;;;;;6246119;23;20440;-78
2023/03/12 05:20:39;;;;;;;4.25;1.38;;;13.90;51.90;;;;;;6246599;23;20000;-77
2023/03/12 05:23:05;;;;;;;2.25;1.40;;;13.90;51.80;;;;;;6246495;23;20000;-78
2023/03/12 05:25:31;;;;;;;1.80;1.15;;;13.90;51.90;;;;;;6255929;23;20020;-78
2023/03/12 05:27:57;;;;;;;3.65;1.50;;;13.80;51.90;;;;;;6219406;23;20464;-71
2023/03/12 05:30:22;;;;;;;1.88;0.90;;;13.80;52.00;;;;;;6256254;23;20331;-71
2023/03/12 05:32:48;;;;;;;1.73;1.20;;;13.90;51.90;;;;;;6256358;23;20003;-71
2023/03/12 05:35:13;;;;;;;2.10;1.55;;;13.90;51.90;;;;;;6229412;23;19997;-71
2023/03/12 05:37:41;;;;;;;2.90;1.30;;;13.80;51.90;;;;;;6256101;23;20015;-71
2023/03/12 05:40:10;;;;;;;1.60;0.90;;;13.80;51.90;;;;;;6246419;23;20039;-71
2023/03/12 05:42:36;;;;;;;2.13;1.30;;;13.80;52.10;;;;;;6246627;23;19996;-71
2023/03/12 05:45:03;;;;;;;2.25;1.10;;;13.80;52.20;;;;;;6256339;23;20435;-71
2023/03/12 05:47:29;;;;;;;2.13;1.30;;;13.80;52.10;;;;;;6256184;23;20436;-72
2023/03/12 05:49:54;;;;;;;2.10;1.40;;;13.80;52.10;;;;;;6256131;23;19992;-71
2023/03/12 05:52:20;;;;;;;3.55;1.23;;;13.80;52.10;;;;;;6256112;23;19992;-71
2023/03/12 05:54:46;;;;;;;2.22;1.20;;;13.80;52.30;;;;;;6256121;23;19996;-71
2023/03/12 05:57:11;;;;;;;2.88;1.63;;;13.80;52.20;;;;;;6246080;23;20023;-71
2023/03/12 05:59:37;;;;;;;2.90;1.77;;;13.80;52.20;;;;;;6255954;23;20019;-71
2023/03/12 06:02:03;;;;;;;2.60;1.30;;;13.80;52.10;;;;;;6255948;23;19996;-71
2023/03/12 06:04:28;;;;;;;1.90;1.38;;;13.80;52.90;;;;;;6255911;23;20051;-71
2023/03/12 06:06:54;;;;;;;1.08;0.93;;;13.80;52.20;;;;;;6255914;23;20000;-71
2023/03/12 06:09:20;;;;;;;1.60;1.45;;;13.80;52.30;;;;;;6255922;23;19992;-71
2023/03/12 06:11:45;;;;;;;1.95;1.10;;;13.80;52.20;;;;;;6246040;23;20000;-71
2023/03/12 06:14:11;;;;;;;2.78;1.25;;;13.80;52.30;;;;;;6255886;23;20447;-71
2023/03/12 06:16:37;;;;;;;3.88;1.52;;;13.80;52.20;;;;;;6255763;23;20031;-71
2023/03/12 06:19:03;;;;;;;2.00;1.30;;;13.80;52.30;;;;;;6255819;23;20327;-71
2023/03/12 06:21:32;;;;;;;1.73;1.10;;;13.80;52.20;;;;;;6255839;23;20054;-71
2023/03/12 06:23:58;;;;;;;3.17;1.58;;;13.80;52.30;;;;;;6246086;23;20159;-71
2023/03/12 06:26:24;;;;;;;2.38;1.50;;;13.80;52.80;;;;;;6255767;23;20056;-71
2023/03/12 06:28:51;;;;;;;2.30;1.30;;;13.80;52.90;;;;;;6255761;23;20000;-71
2023/03/12 06:31:18;;;;;;;1.63;0.90;;;13.80;52.90;;;;;;6255745;23;20035;-71
2023/03/12 06:33:43;;;;;;;2.58;1.63;;;13.80;52.40;;;;;;6255645;23;20339;-71
2023/03/12 06:36:10;;;;;;;1.63;0.90;;;13.80;52.40;;;;;;6255634;23;19992;-71
2023/03/12 06:38:36;;;;;;;2.13;1.30;;;13.80;52.30;;;;;;6255577;23;20066;-71
2023/03/12 06:41:08;;;;;;;1.48;0.82;;;13.80;52.40;;;;;;6255724;23;20427;-71
2023/03/12 06:43:35;;;;;;;1.38;1.15;;;13.80;52.30;;;;;;6229885;23;20007;-71
2023/03/12 06:46:01;;;;;;;2.78;1.40;;;13.70;52.40;;;;;;6255602;23;20004;-71
2023/03/12 06:48:29;;;;;;;2.00;1.30;;;13.80;52.50;;;;;;6255578;23;20038;-71
2023/03/12 06:50:54;;;;;;;1.48;0.90;;;13.80;53.20;;;;;;6255632;23;20004;-72
2023/03/12 06:53:21;;;;;;;2.55;1.25;;;13.70;52.50;;;;;;6255517;23;20074;-71
2023/03/12 06:55:49;;;;;;;1.23;0.95;;;13.80;52.50;;;;;;6255429;23;19992;-71
2023/03/12 06:58:14;;;;;;;2.20;1.08;;;13.70;53.20;;;;;;6255355;23;20011;-79
2023/03/12 07:00:40;;;;;;;1.35;1.20;;;13.70;52.40;;;;;;6255587;23;19997;-78
2023/03/12 07:03:06;;;;;;;1.77;1.13;;;13.80;52.60;;;;;;6255248;23;20095;-78
2023/03/12 07:05:32;;;;;;;2.38;0.93;;;13.70;52.50;;;;;;6255434;23;19996;-78
2023/03/12 07:07:57;;;;;;;3.03;1.33;;;13.70;52.50;;;;;;6255313;23;19996;-79
2023/03/12 07:10:23;;;;;;;1.55;1.08;;;13.70;52.70;;;;;;6255480;23;19996;-78
2023/03/12 07:12:49;;;;;;;1.02;0.80;;;13.70;52.70;;;;;;6255339;23;19992;-79
2023/03/12 07:15:15;;;;;;;1.17;0.80;;;13.70;52.70;;;;;;6255408;23;20323;-79
2023/03/12 07:17:40;;;;;;;1.63;1.20;;;13.70;52.60;;;;;;6255552;23;20004;-71
2023/03/12 07:20:07;;;;;;;1.38;1.00;;;13.70;52.60;;;;;;6255339;23;20002;-71
2023/03/12 07:22:32;;;;;;;2.15;0.98;;;13.70;52.70;;;;;;6255222;23;20074;-71
2023/03/12 07:24:58;;;;;;;2.40;0.90;;;13.70;52.70;;;;;;6255241;23;20431;-71
2023/03/12 07:27:24;;;;;;;2.22;1.20;;;13.70;52.80;;;;;;6255244;23;20443;-71
2023/03/12 07:29:49;;;;;;;1.70;1.08;;;13.70;52.80;;;;;;6255129;23;20002;-71
2023/03/12 07:32:15;;;;;;;2.17;0.93;;;13.70;52.80;;;;;;6255137;23;19996;-71
2023/03/12 07:34:41;;;;;;;1.10;1.00;;;13.70;52.80;;;;;;6255200;23;19998;-71
2023/03/12 07:37:06;;;;;;;1.70;1.00;;;13.70;52.80;;;;;;6255119;23;20440;-79
2023/03/12 07:39:32;;;;;;;1.40;1.20;;;13.70;52.80;;;;;;6245304;23;19996;-79
2023/03/12 07:41:58;;;;;;;1.30;1.10;;;13.70;52.90;;;;;;6244891;23;20475;-78
2023/03/12 07:44:25;;;;;;;1.42;0.90;;;13.70;52.90;;;;;;6255173;23;20041;-77
2023/03/12 07:46:51;;;;;;;1.25;1.08;;;13.70;52.90;;;;;;6255000;23;20327;-77
2023/03/12 07:49:17;;;;;;;2.25;1.20;;;13.70;52.90;;;;;;6254885;23;19996;-77
2023/03/12 07:51:42;;;;;;;1.48;1.05;;;13.70;52.90;;;;;;6255217;23;20030;-78
2023/03/12 07:54:08;;;;;;;1.23;1.08;;;13.70;53.00;;;;;;6255010;23;20070;-78
2023/03/12 07:56:33;;;;;;;2.10;1.23;;;13.70;52.90;;;;;;6254967;23;20062;-78
2023/03/12 07:58:59;;;;;;;1.70;1.10;;;13.70;53.00;;;;;;6254933;23;19996;-77
2023/03/12 08:01:30;;;;;;;2.47;1.30;;;13.60;62.10;;;;;;6254944;23;20093;-77
2023/03/12 08:04:00;;;;;;;2.50;1.13;;;13.60;53.20;;;;;;6244582;23;20035;-75
2023/03/12 08:06:28;;;;;;;1.70;1.08;;;13.70;53.20;;;;;;6244766;23;20009;-76
2023/03/12 08:08:54;;;;;;;2.45;1.23;;;13.70;53.20;;;;;;6245139;23;20083;-77
2023/03/12 08:11:20;;;;;;;2.15;1.15;;;13.60;53.60;;;;;;6245158;23;20039;-76
2023/03/12 08:13:47;;;;;;;1.95;1.17;;;13.60;53.40;;;;;;6245122;23;20000;-70
2023/03/12 08:16:13;;;;;;;1.77;1.25;;;13.60;53.40;;;;;;6244666;23;20057;-71
2023/03/12 08:18:41;;;;;;;2.30;1.55;;;13.60;53.30;;;;;;6245052;23;20008;-70
2023/03/12 08:21:07;;;;;;;1.52;1.38;;;13.60;53.30;;;;;;6245034;23;19996;-71
2023/03/12 08:23:34;;;;;;;1.88;1.25;;;13.60;53.60;;;;;;6245020;23;20071;-72
2023/03/12 08:26:00;;;;;;;2.63;1.73;;;13.60;53.50;;;;;;6244776;23;19992;-71
2023/03/12 08:28:26;;;;;;;2.05;1.55;;;13.60;53.50;;;;;;6254949;23;20084;-71
2023/03/12 08:30:54;;;;;;;2.72;1.85;;;13.60;53.60;;;;;;6245144;23;20004;-71
2023/03/12 08:33:20;;;;;;;1.83;1.52;;;13.60;53.70;;;;;;6254977;23;20002;-71
2023/03/12 08:35:47;;;;;;;2.70;1.45;;;13.60;54.30;;;;;;6254860;23;20545;-71
2023/03/12 08:38:13;;;;;;;2.78;1.90;;;13.60;53.80;;;;;;6254750;23;20038;-70
2023/03/12 08:40:38;;;;;;;4.70;2.13;;;13.60;53.80;;;;;;6254822;23;20356;-75
2023/03/12 08:43:06;;;;;;;2.88;2.17;;;13.60;54.00;;;;;;6254830;23;20067;-72
2023/03/12 08:45:32;;;;;;;2.92;2.40;;;13.50;54.70;;;;;;6254857;23;20042;-72
2023/03/12 08:47:57;;;;;;;3.38;2.78;;;13.50;54.60;;;;;;6254739;23;20008;-71
2023/03/12 08:50:25;;;;;;;3.13;2.53;;;13.50;54.10;;;;;;6254803;23;20067;-71
2023/03/12 08:52:50;;;;;;;2.80;2.60;;;13.50;54.10;;;;;;6254737;23;20007;-71
2023/03/12 08:55:16;;;;;;;4.43;2.80;;;13.50;54.20;;;;;;6254684;23;20328;-70
2023/03/12 08:57:42;;;;;;;8.65;3.55;;;13.60;54.30;;;;;;6254595;23;20012;-69
2023/03/12 09:00:13;;;;;;;6.45;3.47;;;13.60;54.40;;;;;;6255570;23;19996;-70
2023/03/12 09:02:39;;;;;;;4.80;3.28;;;13.60;54.60;;;;;;6246218;23;20004;-71
2023/03/12 09:05:06;;;;;;;7.03;3.75;;;13.60;54.60;;;;;;6246430;23;20034;-70
2023/03/12 09:07:32;;;;;;;5.80;3.75;;;13.60;54.60;;;;;;6246807;23;20022;-70
2023/03/12 09:09:57;;;;;;;9.55;3.92;;;13.60;55.30;;;;;;6256693;23;20001;-70
2023/03/12 09:12:23;;;;;;;6.95;4.82;;;13.60;54.70;;;;;;6256433;23;20122;-70
2023/03/12 09:14:50;;;;;;;7.35;6.55;;;13.60;54.80;;;;;;6256585;23;19996;-70
2023/03/12 09:17:16;;;;;;;8.65;6.82;;;13.60;55.00;;;;;;6256381;23;20008;-70
2023/03/12 09:19:41;;;;;;;7.20;6.53;;;13.60;55.20;;;;;;6256513;23;20000;-70
2023/03/12 09:22:07;;;;;;;8.90;7.82;;;13.60;55.30;;;;;;6256382;23;19996;-70
2023/03/12 09:24:33;;;;;;;9.73;8.25;;;13.60;55.40;;;;;;6256387;23;20443;-70
2023/03/12 09:26:58;;;;;;;9.23;8.35;;;13.60;55.70;;;;;;6246589;23;20000;-76
2023/03/12 09:29:24;;;;;;;9.55;8.65;;;13.60;55.80;;;;;;6256343;23;20000;-76
2023/03/12 09:31:50;;;;;;;8.70;7.90;;;13.60;55.60;;;;;;6256449;23;20008;-76
2023/03/12 09:34:16;;;;;;;9.15;8.25;;;13.70;55.80;;;;;;6256353;23;20324;-76
2023/03/12 09:36:42;;;;;;;7.45;6.85;;;13.70;55.90;;;;;;6256242;23;20000;-76
2023/03/12 09:39:07;;;;;;;7.68;6.97;;;13.70;56.10;;;;;;6256311;23;20454;-75
2023/03/12 09:41:38;;;;;;;7.38;6.68;;;13.70;56.00;;;;;;6246336;23;19996;-75
2023/03/12 09:44:27;;;;;;;8.60;6.25;;;13.70;56.00;;;;;;6256350;23;20000;-71
2023/03/12 09:46:56;;;;;;;9.02;5.53;;;13.70;56.70;;;;;;6256411;23;19992;-74
2023/03/12 09:49:29;;;;;;;8.57;5.65;;;13.70;56.10;;;;;;6256188;23;20000;-75
2023/03/12 09:51:59;;;;;;;6.05;4.80;;;13.70;56.80;;;;;;6256233;23;19999;-75
2023/03/12 09:54:44;;;;;;;9.63;5.85;;;13.70;56.40;;;;;;6256100;23;20003;-75
2023/03/12 09:57:22;;;;;;;8.30;4.93;;;13.80;56.40;;;;;;6256157;23;19996;-76
2023/03/12 09:59:48;;;;;;;6.97;4.45;;;13.80;56.60;;;;;;6256181;23;20000;-76
2023/03/12 10:02:52;;;;;;;9.95;5.05;;;13.80;56.60;;;;;;6256153;23;20046;-75
2023/03/12 10:05:27;;;;;;;6.03;4.50;;;13.80;56.90;;;;;;6191466;23;20022;-76
2023/03/12 10:08:04;;;;;;;7.35;3.70;;;13.90;57.10;;;;;;6256024;23;19996;-75
2023/03/12 10:10:35;;;;;;;6.90;3.63;;;13.90;57.10;;;;;;6255999;23;19999;-76
2023/03/12 10:13:15;;;;;;;8.15;3.90;;;13.90;57.00;;;;;;6256011;23;19996;-76
2023/03/12 10:16:03;;;;;;;12.50;3.97;;;14.00;57.30;;;;;;6255895;23;19992;-75
2023/03/12 10:18:57;;;;;;;8.40;3.33;;;14.00;57.10;;;;;;6255762;23;20008;-75
2023/03/12 10:21:34;;;;;;;8.20;3.13;;;14.00;57.30;;;;;;6255986;23;20000;-71
2023/03/12 10:24:07;;;;;;;12.65;4.30;;;14.00;57.30;;;;;;6245683;23;20006;-71
2023/03/12 10:26:42;;;;;;;11.50;3.35;;;14.00;57.60;;;;;;6245950;23;20003;-71
2023/03/12 10:29:22;;;;;;;11.25;3.10;;;14.00;58.40;;;;;;6245904;23;20072;-70
2023/03/12 10:32:11;;;;;;;12.13;3.53;;;14.10;57.80;;;;;;6245458;23;20011;-70
2023/03/12 10:34:45;;;;;;;10.50;2.70;;;14.10;58.00;;;;;;6245822;23;20055;-71
2023/03/12 10:37:26;;;;;;;7.13;2.78;;;14.10;58.10;;;;;;6255532;23;20087;-71
2023/03/12 10:39:54;;;;;;;8.75;3.13;;;14.20;58.10;;;;;;6255688;23;20436;-74
2023/03/12 10:42:24;;;;;;;6.35;2.83;;;14.20;58.30;;;;;;6255728;23;20006;-74
2023/03/12 10:45:09;;;;;;;9.52;2.92;;;14.20;58.50;;;;;;6255613;23;19996;-74
2023/03/12 10:47:42;;;;;;;8.15;2.67;;;14.30;58.40;;;;;;6255533;23;20004;-74
2023/03/12 10:50:18;;;;;;;10.60;3.30;;;14.30;58.40;;;;;;6255498;23;20460;-74
2023/03/12 10:52:46;;;;;;;10.82;2.75;;;14.30;58.60;;;;;;6255357;23;20004;-74
2023/03/12 10:55:29;;;;;;;10.60;3.10;;;14.30;58.50;;;;;;6255495;23;20487;-74
2023/03/12 10:57:55;;;;;;;12.70;3.15;;;14.40;58.90;;;;;;6255711;23;20011;-71
2023/03/12 11:00:31;;;;;;;10.52;2.95;;;14.40;58.90;;;;;;6255460;23;20057;-72
2023/03/12 11:03:19;;;;;;;11.95;3.47;;;14.40;58.90;;;;;;6255135;23;20012;-71
2023/03/12 11:05:50;;;;;;;20.50;4.82;;;14.40;58.90;;;;;;6255384;23;20023;-71
2023/03/12 11:08:26;;;;;;;15.80;3.28;;;14.50;59.30;;;;;;6255290;23;20007;-72
2023/03/12 11:10:54;;;;;;;11.55;3.78;;;14.50;59.10;;;;;;6245450;23;20004;-70
2023/03/12 11:13:29;;;;;;;9.43;3.03;;;14.50;59.10;;;;;;6255311;23;20001;-70
2023/03/12 11:15:58;;;;;;;15.52;3.55;;;14.50;59.10;;;;;;6255165;23;20067;-73
2023/03/12 11:18:35;;;;;;;8.93;2.78;;;14.60;59.70;;;;;;6255248;23;20008;-73
2023/03/12 11:21:09;;;;;;;13.85;3.47;;;14.60;59.90;;;;;;6255247;23;19993;-75
2023/03/12 11:24:03;;;;;;;12.35;3.33;;;14.60;59.20;;;;;;6254826;23;20121;-74
2023/03/12 11:26:50;;;;;;;11.05;2.92;;;14.60;59.10;;;;;;6255226;23;20364;-74
2023/03/12 11:29:38;;;;;;;13.88;4.13;;;14.60;59.10;;;;;;6255088;23;20000;-75
2023/03/12 11:32:15;;;;;;;15.27;3.47;;;14.60;59.30;;;;;;6245202;23;20004;-75
2023/03/12 11:34:42;;;;;;;10.82;2.92;;;14.60;59.20;;;;;;6245302;23;20190;-72
2023/03/12 11:37:12;;;;;;;15.05;3.65;;;14.70;59.40;;;;;;6245215;23;20015;-71
2023/03/12 11:39:49;;;;;;;14.20;3.47;;;14.70;59.70;;;;;;6255041;23;19997;-71
2023/03/12 11:42:51;;;;;;;12.32;3.42;;;14.70;59.20;;;;;;6254976;23;20004;-71
2023/03/12 11:45:36;;;;;;;13.43;3.35;;;14.70;59.20;;;;;;6244850;23;20000;-72
2023/03/12 11:48:22;;;;;;;16.20;4.32;;;14.70;59.30;;;;;;6245009;23;20000;-72
2023/03/12 11:51:19;;;;;;;12.18;3.47;;;14.80;59.30;;;;;;6244558;23;19992;-72
2023/03/12 11:54:16;;;;;;;17.05;4.10;;;14.90;59.00;;;;;;6245154;23;20000;-73
2023/03/12 11:57:08;;;;;;;13.93;3.80;;;14.90;58.70;;;;;;6244909;23;20336;-74
2023/03/12 11:59:52;;;;;;;15.30;4.28;;;15.00;58.70;;;;;;6245072;23;20019;-73
2023/03/12 12:02:42;;;;;;;15.73;3.25;;;15.00;58.70;;;;;;6244733;23;20004;-73
2023/03/12 12:05:30;;;;;;;17.02;4.20;;;15.00;58.70;;;;;;6244762;23;20054;-73
2023/03/12 12:08:14;;;;;;;18.38;4.68;;;15.00;58.90;;;;;;6245013;23;20008;-74
2023/03/12 12:10:46;;;;;;;23.00;5.78;;;15.10;59.20;;;;;;6245057;23;20007;-73
2023/03/12 12:13:38;;;;;;;26.77;5.63;;;15.10;59.80;;;;;;6245064;23;20004;-74
2023/03/12 12:16:07;;;;;;;27.65;5.28;;;15.10;59.60;;;;;;6244969;23;20000;-75
2023/03/12 12:18:42;;;;;;;24.05;6.57;;;15.10;59.90;;;;;;6244835;23;20008;-78
2023/03/12 12:21:25;;;;;;;24.75;5.50;;;15.10;60.10;;;;;;6245008;23;20000;-74
2023/03/12 12:24:04;;;;;;;25.02;5.53;;;15.10;59.80;;;;;;6244616;23;20007;-75
2023/03/12 12:26:42;;;;;;;23.48;5.93;;;15.10;60.00;;;;;;6244960;23;19997;-73
2023/03/12 12:29:38;;;;;;;17.48;4.00;;;15.10;60.00;;;;;;6244587;23;20420;-72
2023/03/12 12:32:09;;;;;;;15.82;4.00;;;15.10;60.00;;;;;;6224968;23;20000;-69
2023/03/12 12:34:40;;;;;;;19.10;4.90;;;15.10;59.70;;;;;;6245820;23;20004;-70
2023/03/12 12:37:15;;;;;;;19.95;4.63;;;15.10;59.60;;;;;;6246617;23;20012;-71
2023/03/12 12:39:47;;;;;;;21.25;4.95;;;15.10;59.90;;;;;;6246671;23;19992;-71
2023/03/12 12:42:19;;;;;;;18.95;4.88;;;15.20;59.90;;;;;;6256816;23;20078;-71
2023/03/12 12:44:51;;;;;;;14.50;4.40;;;15.20;59.90;;;;;;6256680;23;20048;-70
2023/03/12 12:47:31;;;;;;;22.63;4.85;;;15.20;59.80;;;;;;6256713;23;20000;-70
2023/03/12 12:49:57;;;;;;;18.27;4.35;;;15.20;59.70;;;;;;6246915;23;20301;-70
2023/03/12 12:52:24;;;;;;;13.32;3.63;;;15.20;59.60;;;;;;6256622;23;19996;-69
2023/03/12 12:54:59;;;;;;;21.05;4.72;;;15.30;59.50;;;;;;6256652;23;19992;-72
2023/03/12 12:57:43;;;;;;;17.88;4.05;;;15.30;59.50;;;;;;6256380;23;20016;-70